sensor_id;sensor_type;location;lat;lon;timestamp;temperature;humidity
18876;DHT22;9570;50.854;13.778;2023-04-01T00:00:17;9.70;99.90
18876;DHT22;9570;50.854;13.778;2023-04-01T00:02:43;9.70;99.90
18876;DHT22;9570;50.854;13.778;2023-04-01T00:05:09;9.70;99.90
18876;DHT22;9570;50.854;13.778;2023-04-01T00:07:39;9.70;99.90
18876;DHT22;9570;50.854;13.778;2023-04-01T00:10:05;9.70;99.90
18876;DHT22;9570;50.854;13.778;2023-04-01T00:12:31;9.80;99.90
18876;DHT22;9570;50.854;13.778;2023-04-01T00:14:57;9.70;99.90
18876;DHT22;9570;50.854;13.778;2023-04-01T00:17:22;9.70;99.90
18876;DHT22;9570;50.854;13.778;2023-04-01T00:19:48;9.60;99.90
18876;DHT22;9570;50.854;13.778;2023-04-01T00:22:13;9.50;99.90
18876;DHT22;9570;50.854;13.778;2023-04-01T00:24:39;9.50;99.90
18876;DHT22;9570;50.854;13.778;2023-04-01T00:27:05;9.50;99.90
18876;DHT22;9570;50.854;13.778;2023-04-01T00:29:30;9.50;99.90
18876;DHT22;9570;50.854;13.778;2023-04-01T00:31:57;9.50;99.90
18876;DHT22;9570;50.854;13.778;2023-04-01T00:34:22;9.50;99.90
18876;DHT22;9570;50.854;13.778;2023-04-01T00:36:49;9.50;99.90
18876;DHT22;9570;50.854;13.778;2023-04-01T00:39:15;9.50;99.90
18876;DHT22;9570;50.854;13.778;2023-04-01T00:41:41;9.40;99.90
18876;DHT22;9570;50.854;13.778;2023-04-01T00:44:22;9.40;99.90
18876;DHT22;9570;50.854;13.778;2023-04-01T00:46:48;9.30;99.90
18876;DHT22;9570;50.854;13.778;2023-04-01T00:49:15;9.40;99.90
18876;DHT22;9570;50.854;13.778;2023-04-01T00:51:43;9.30;99.90
18876;DHT22;9570;50.854;13.778;2023-04-01T00:54:11;9.30;99.90
18876;DHT22;9570;50.854;13.778;2023-04-01T00:56:45;9.30;99.90
18876;DHT22;9570;50.854;13.778;2023-04-01T00:59:18;9.30;99.90
18876;DHT22;9570;50.854;13.778;2023-04-01T01:01:45;9.30;99.90
18876;DHT22;9570;50.854;13.778;2023-04-01T01:04:33;9.20;99.90
18876;DHT22;9570;50.854;13.778;2023-04-01T01:15:47;9.20;99.90
18876;DHT22;9570;50.854;13.778;2023-04-01T01:21:41;9.30;99.90
18876;DHT22;9570;50.854;13.778;2023-04-01T01:27:02;9.30;99.90
18876;DHT22;9570;50.854;13.778;2023-04-01T01:35:43;9.10;99.90
18876;DHT22;9570;50.854;13.778;2023-04-01T01:38:14;9.00;99.90
18876;DHT22;9570;50.854;13.778;2023-04-01T01:40:43;9.10;99.90
18876;DHT22;9570;50.854;13.778;2023-04-01T01:43:12;9.20;99.90
18876;DHT22;9570;50.854;13.778;2023-04-01T01:45:46;9.10;99.90
18876;DHT22;9570;50.854;13.778;2023-04-01T01:48:14;9.10;99.90
18876;DHT22;9570;50.854;13.778;2023-04-01T01:50:42;9.10;99.90
18876;DHT22;9570;50.854;13.778;2023-04-01T01:53:11;9.20;99.90
18876;DHT22;9570;50.854;13.778;2023-04-01T01:55:43;9.10;99.90
18876;DHT22;9570;50.854;13.778;2023-04-01T01:58:32;9.10;99.90
18876;DHT22;9570;50.854;13.778;2023-04-01T02:01:02;9.10;99.90
18876;DHT22;9570;50.854;13.778;2023-04-01T02:03:32;9.00;99.90
18876;DHT22;9570;50.854;13.778;2023-04-01T02:06:01;9.00;99.90
18876;DHT22;9570;50.854;13.778;2023-04-01T02:08:35;9.10;99.90
18876;DHT22;9570;50.854;13.778;2023-04-01T02:11:13;9.10;99.90
18876;DHT22;9570;50.854;13.778;2023-04-01T02:13:45;9.10;99.90
18876;DHT22;9570;50.854;13.778;2023-04-01T02:16:36;9.10;99.90
18876;DHT22;9570;50.854;13.778;2023-04-01T02:19:01;9.00;99.90
18876;DHT22;9570;50.854;13.778;2023-04-01T02:21:32;9.10;99.90
18876;DHT22;9570;50.854;13.778;2023-04-01T02:24:01;9.10;99.90
18876;DHT22;9570;50.854;13.778;2023-04-01T02:26:27;9.20;99.90
18876;DHT22;9570;50.854;13.778;2023-04-01T02:28:54;9.20;99.90
18876;DHT22;9570;50.854;13.778;2023-04-01T02:31:20;9.10;99.90
18876;DHT22;9570;50.854;13.778;2023-04-01T02:33:47;9.10;99.90
18876;DHT22;9570;50.854;13.778;2023-04-01T02:36:13;9.10;99.90
18876;DHT22;9570;50.854;13.778;2023-04-01T02:38:41;9.20;99.90
18876;DHT22;9570;50.854;13.778;2023-04-01T02:41:07;9.20;99.90
18876;DHT22;9570;50.854;13.778;2023-04-01T02:43:33;9.20;99.90
18876;DHT22;9570;50.854;13.778;2023-04-01T02:45:59;9.20;99.90
18876;DHT22;9570;50.854;13.778;2023-04-01T02:48:24;9.30;99.90
18876;DHT22;9570;50.854;13.778;2023-04-01T02:50:50;9.30;99.90
18876;DHT22;9570;50.854;13.778;2023-04-01T02:53:15;9.30;99.90
18876;DHT22;9570;50.854;13.778;2023-04-01T02:55:41;9.20;99.90
18876;DHT22;9570;50.854;13.778;2023-04-01T02:58:07;9.20;99.90
18876;DHT22;9570;50.854;13.778;2023-04-01T03:00:32;9.40;99.90
18876;DHT22;9570;50.854;13.778;2023-04-01T03:02:58;9.40;99.90
18876;DHT22;9570;50.854;13.778;2023-04-01T03:05:24;9.50;99.90
18876;DHT22;9570;50.854;13.778;2023-04-01T03:07:49;9.50;99.90
18876;DHT22;9570;50.854;13.778;2023-04-01T03:10:15;9.50;99.90
18876;DHT22;9570;50.854;13.778;2023-04-01T03:12:40;9.40;99.90
18876;DHT22;9570;50.854;13.778;2023-04-01T03:15:06;9.30;99.90
18876;DHT22;9570;50.854;13.778;2023-04-01T03:17:32;9.20;99.90
18876;DHT22;9570;50.854;13.778;2023-04-01T03:19:57;9.20;99.90
18876;DHT22;9570;50.854;13.778;2023-04-01T03:22:22;9.20;99.90
18876;DHT22;9570;50.854;13.778;2023-04-01T03:24:48;9.20;99.90
18876;DHT22;9570;50.854;13.778;2023-04-01T03:27:14;9.30;99.90
18876;DHT22;9570;50.854;13.778;2023-04-01T03:29:40;9.40;99.90
18876;DHT22;9570;50.854;13.778;2023-04-01T03:32:05;9.30;99.90
18876;DHT22;9570;50.854;13.778;2023-04-01T03:34:31;9.30;99.90
18876;DHT22;9570;50.854;13.778;2023-04-01T03:36:57;9.30;99.90
18876;DHT22;9570;50.854;13.778;2023-04-01T03:39:22;9.20;99.90
18876;DHT22;9570;50.854;13.778;2023-04-01T03:41:48;9.20;99.90
18876;DHT22;9570;50.854;13.778;2023-04-01T03:44:13;9.20;99.90
18876;DHT22;9570;50.854;13.778;2023-04-01T03:46:39;9.10;99.90
18876;DHT22;9570;50.854;13.778;2023-04-01T03:49:09;9.20;99.90
18876;DHT22;9570;50.854;13.778;2023-04-01T03:51:37;9.30;99.90
18876;DHT22;9570;50.854;13.778;2023-04-01T03:54:03;9.30;99.90
18876;DHT22;9570;50.854;13.778;2023-04-01T03:56:30;9.40;99.90
18876;DHT22;9570;50.854;13.778;2023-04-01T03:58:55;9.40;99.90
18876;DHT22;9570;50.854;13.778;2023-04-01T04:01:22;9.50;99.90
18876;DHT22;9570;50.854;13.778;2023-04-01T04:03:48;9.40;99.90
18876;DHT22;9570;50.854;13.778;2023-04-01T04:06:16;9.40;99.90
18876;DHT22;9570;50.854;13.778;2023-04-01T04:08:42;9.30;99.90
18876;DHT22;9570;50.854;13.778;2023-04-01T04:11:08;9.40;99.90
18876;DHT22;9570;50.854;13.778;2023-04-01T04:13:34;9.30;99.90
18876;DHT22;9570;50.854;13.778;2023-04-01T04:15:59;9.30;99.90
18876;DHT22;9570;50.854;13.778;2023-04-01T04:18:25;9.30;99.90
18876;DHT22;9570;50.854;13.778;2023-04-01T04:20:50;9.20;99.90
18876;DHT22;9570;50.854;13.778;2023-04-01T04:23:17;9.30;99.90
18876;DHT22;9570;50.854;13.778;2023-04-01T04:26:00;9.30;99.90
18876;DHT22;9570;50.854;13.778;2023-04-01T04:28:27;9.40;99.90
18876;DHT22;9570;50.854;13.778;2023-04-01T04:30:53;9.50;99.90
18876;DHT22;9570;50.854;13.778;2023-04-01T04:33:19;9.40;99.90
18876;DHT22;9570;50.854;13.778;2023-04-01T04:35:44;9.40;99.90
18876;DHT22;9570;50.854;13.778;2023-04-01T04:38:10;9.20;99.90
18876;DHT22;9570;50.854;13.778;2023-04-01T04:40:37;9.20;99.90
18876;DHT22;9570;50.854;13.778;2023-04-01T04:43:03;9.10;99.90
18876;DHT22;9570;50.854;13.778;2023-04-01T04:45:28;9.20;99.90
18876;DHT22;9570;50.854;13.778;2023-04-01T04:47:54;9.30;99.90
18876;DHT22;9570;50.854;13.778;2023-04-01T04:50:20;9.20;99.90
18876;DHT22;9570;50.854;13.778;2023-04-01T04:52:46;9.20;99.90
18876;DHT22;9570;50.854;13.778;2023-04-01T04:55:11;9.20;99.90
18876;DHT22;9570;50.854;13.778;2023-04-01T04:57:37;9.20;99.90
18876;DHT22;9570;50.854;13.778;2023-04-01T05:00:03;9.20;99.90
18876;DHT22;9570;50.854;13.778;2023-04-01T05:02:29;9.20;99.90
18876;DHT22;9570;50.854;13.778;2023-04-01T05:04:54;9.10;99.90
18876;DHT22;9570;50.854;13.778;2023-04-01T05:07:20;9.20;99.90
18876;DHT22;9570;50.854;13.778;2023-04-01T05:09:45;9.20;99.90
18876;DHT22;9570;50.854;13.778;2023-04-01T05:12:12;9.20;99.90
18876;DHT22;9570;50.854;13.778;2023-04-01T05:14:38;9.20;99.90
18876;DHT22;9570;50.854;13.778;2023-04-01T05:17:07;9.20;99.90
18876;DHT22;9570;50.854;13.778;2023-04-01T05:19:33;9.20;99.90
18876;DHT22;9570;50.854;13.778;2023-04-01T05:21:59;9.10;99.90
18876;DHT22;9570;50.854;13.778;2023-04-01T05:24:24;9.10;99.90
18876;DHT22;9570;50.854;13.778;2023-04-01T05:26:50;9.10;99.90
18876;DHT22;9570;50.854;13.778;2023-04-01T05:29:15;9.20;99.90
18876;DHT22;9570;50.854;13.778;2023-04-01T05:31:40;9.30;99.90
18876;DHT22;9570;50.854;13.778;2023-04-01T05:34:06;9.30;99.90
18876;DHT22;9570;50.854;13.778;2023-04-01T05:36:31;9.20;99.90
18876;DHT22;9570;50.854;13.778;2023-04-01T05:38:57;9.30;99.90
18876;DHT22;9570;50.854;13.778;2023-04-01T05:41:22;9.30;99.90
18876;DHT22;9570;50.854;13.778;2023-04-01T05:43:48;9.40;99.90
18876;DHT22;9570;50.854;13.778;2023-04-01T05:46:13;9.30;99.90
18876;DHT22;9570;50.854;13.778;2023-04-01T05:48:39;9.20;99.90
18876;DHT22;9570;50.854;13.778;2023-04-01T05:51:04;9.20;99.90
18876;DHT22;9570;50.854;13.778;2023-04-01T05:53:30;9.20;99.90
18876;DHT22;9570;50.854;13.778;2023-04-01T05:55:55;9.20;99.90
18876;DHT22;9570;50.854;13.778;2023-04-01T05:58:21;9.10;99.90
18876;DHT22;9570;50.854;13.778;2023-04-01T06:00:47;9.10;99.90
18876;DHT22;9570;50.854;13.778;2023-04-01T06:03:12;9.20;99.90
18876;DHT22;9570;50.854;13.778;2023-04-01T06:05:43;9.10;99.90
18876;DHT22;9570;50.854;13.778;2023-04-01T06:08:12;9.10;99.90
18876;DHT22;9570;50.854;13.778;2023-04-01T06:13:40;9.10;99.90
18876;DHT22;9570;50.854;13.778;2023-04-01T06:21:42;9.10;99.90
18876;DHT22;9570;50.854;13.778;2023-04-01T06:24:37;9.20;99.90
18876;DHT22;9570;50.854;13.778;2023-04-01T06:27:50;9.20;99.90
18876;DHT22;9570;50.854;13.778;2023-04-01T06:32:58;9.50;99.90
18876;DHT22;9570;50.854;13.778;2023-04-01T06:35:54;9.70;99.90
18876;DHT22;9570;50.854;13.778;2023-04-01T06:46:58;9.60;99.90
18876;DHT22;9570;50.854;13.778;2023-04-01T06:49:41;9.70;99.90
18876;DHT22;9570;50.854;13.778;2023-04-01T06:55:27;9.70;99.90
18876;DHT22;9570;50.854;13.778;2023-04-01T06:57:56;9.80;99.90
18876;DHT22;9570;50.854;13.778;2023-04-01T07:00:35;9.90;99.90
18876;DHT22;9570;50.854;13.778;2023-04-01T07:03:23;10.10;99.90
18876;DHT22;9570;50.854;13.778;2023-04-01T07:05:53;10.20;99.90
18876;DHT22;9570;50.854;13.778;2023-04-01T07:08:25;10.20;99.90
18876;DHT22;9570;50.854;13.778;2023-04-01T07:11:01;10.20;99.90
18876;DHT22;9570;50.854;13.778;2023-04-01T07:13:43;10.30;99.90
18876;DHT22;9570;50.854;13.778;2023-04-01T07:16:26;10.20;99.90
18876;DHT22;9570;50.854;13.778;2023-04-01T07:19:20;10.30;99.90
18876;DHT22;9570;50.854;13.778;2023-04-01T07:21:54;10.10;99.90
18876;DHT22;9570;50.854;13.778;2023-04-01T07:24:34;10.10;99.90
18876;DHT22;9570;50.854;13.778;2023-04-01T07:27:00;10.20;99.90
18876;DHT22;9570;50.854;13.778;2023-04-01T07:29:26;10.30;99.90
18876;DHT22;9570;50.854;13.778;2023-04-01T07:32:14;10.30;99.90
18876;DHT22;9570;50.854;13.778;2023-04-01T07:35:00;10.30;99.90
18876;DHT22;9570;50.854;13.778;2023-04-01T07:40:14;10.20;99.90
18876;DHT22;9570;50.854;13.778;2023-04-01T07:43:05;10.30;99.90
18876;DHT22;9570;50.854;13.778;2023-04-01T07:48:46;10.60;99.90
18876;DHT22;9570;50.854;13.778;2023-04-01T07:56:58;11.00;99.90
18876;DHT22;9570;50.854;13.778;2023-04-01T08:02:19;10.50;99.90
18876;DHT22;9570;50.854;13.778;2023-04-01T08:07:20;10.80;99.90
18876;DHT22;9570;50.854;13.778;2023-04-01T08:09:56;10.60;99.90
18876;DHT22;9570;50.854;13.778;2023-04-01T08:12:35;10.60;99.90
18876;DHT22;9570;50.854;13.778;2023-04-01T08:15:23;10.70;99.90
18876;DHT22;9570;50.854;13.778;2023-04-01T08:20:32;11.00;99.90
18876;DHT22;9570;50.854;13.778;2023-04-01T08:23:19;11.10;99.90
18876;DHT22;9570;50.854;13.778;2023-04-01T08:29:03;10.70;99.90
18876;DHT22;9570;50.854;13.778;2023-04-01T08:31:35;10.70;99.90
18876;DHT22;9570;50.854;13.778;2023-04-01T08:34:05;10.40;99.90
18876;DHT22;9570;50.854;13.778;2023-04-01T08:36:37;10.20;99.90
18876;DHT22;9570;50.854;13.778;2023-04-01T08:39:09;10.20;99.90
18876;DHT22;9570;50.854;13.778;2023-04-01T08:47:24;10.60;99.90
18876;DHT22;9570;50.854;13.778;2023-04-01T08:52:35;10.90;99.90
18876;DHT22;9570;50.854;13.778;2023-04-01T09:00:37;10.70;99.90
18876;DHT22;9570;50.854;13.778;2023-04-01T09:03:31;10.60;99.90
18876;DHT22;9570;50.854;13.778;2023-04-01T09:06:24;10.50;99.90
18876;DHT22;9570;50.854;13.778;2023-04-01T09:09:09;10.50;99.90
18876;DHT22;9570;50.854;13.778;2023-04-01T09:20:19;10.50;99.90
18876;DHT22;9570;50.854;13.778;2023-04-01T09:23:24;10.50;99.90
18876;DHT22;9570;50.854;13.778;2023-04-01T09:26:29;10.50;99.90
18876;DHT22;9570;50.854;13.778;2023-04-01T09:44:23;11.10;99.90
18876;DHT22;9570;50.854;13.778;2023-04-01T09:47:15;11.10;99.90
18876;DHT22;9570;50.854;13.778;2023-04-01T09:55:21;11.80;99.90
18876;DHT22;9570;50.854;13.778;2023-04-01T09:58:33;11.60;99.90
18876;DHT22;9570;50.854;13.778;2023-04-01T10:01:44;11.70;99.90
18876;DHT22;9570;50.854;13.778;2023-04-01T10:07:51;11.80;99.90
18876;DHT22;9570;50.854;13.778;2023-04-01T10:10:46;11.90;99.90
18876;DHT22;9570;50.854;13.778;2023-04-01T10:13:53;12.10;99.90
18876;DHT22;9570;50.854;13.778;2023-04-01T10:16:34;12.10;99.90
18876;DHT22;9570;50.854;13.778;2023-04-01T10:19:20;12.20;99.90
18876;DHT22;9570;50.854;13.778;2023-04-01T10:25:05;11.80;99.90
18876;DHT22;9570;50.854;13.778;2023-04-01T10:39:12;12.00;99.90
18876;DHT22;9570;50.854;13.778;2023-04-01T10:56:15;12.30;99.90
18876;DHT22;9570;50.854;13.778;2023-04-01T11:04:43;12.50;99.90
18876;DHT22;9570;50.854;13.778;2023-04-01T11:13:36;13.00;99.90
18876;DHT22;9570;50.854;13.778;2023-04-01T11:16:28;13.20;99.90
18876;DHT22;9570;50.854;13.778;2023-04-01T11:19:35;13.40;99.90
18876;DHT22;9570;50.854;13.778;2023-04-01T11:22:14;13.50;99.90
18876;DHT22;9570;50.854;13.778;2023-04-01T11:24:58;13.80;99.90
18876;DHT22;9570;50.854;13.778;2023-04-01T11:27:41;13.60;99.90
18876;DHT22;9570;50.854;13.778;2023-04-01T11:35:55;14.00;99.90
18876;DHT22;9570;50.854;13.778;2023-04-01T11:39:00;13.80;99.90
18876;DHT22;9570;50.854;13.778;2023-04-01T11:44:18;13.80;99.90
18876;DHT22;9570;50.854;13.778;2023-04-01T11:49:59;14.20;99.90
18876;DHT22;9570;50.854;13.778;2023-04-01T11:53:03;14.30;99.90
18876;DHT22;9570;50.854;13.778;2023-04-01T11:58:53;13.90;99.90
18876;DHT22;9570;50.854;13.778;2023-04-01T12:04:38;14.60;99.90
18876;DHT22;9570;50.854;13.778;2023-04-01T12:07:19;14.90;99.90
18876;DHT22;9570;50.854;13.778;2023-04-01T12:10:02;14.20;99.90
18876;DHT22;9570;50.854;13.778;2023-04-01T12:12:42;14.00;99.90
18876;DHT22;9570;50.854;13.778;2023-04-01T12:18:25;14.00;99.90
18876;DHT22;9570;50.854;13.778;2023-04-01T12:21:22;13.80;99.90
18876;DHT22;9570;50.854;13.778;2023-04-01T12:26:33;13.50;99.90
18876;DHT22;9570;50.854;13.778;2023-04-01T12:32:44;13.60;99.90
18876;DHT22;9570;50.854;13.778;2023-04-01T12:36:28;13.70;99.90
18876;DHT22;9570;50.854;13.778;2023-04-01T12:41:53;13.40;99.90
18876;DHT22;9570;50.854;13.778;2023-04-01T12:44:42;13.70;99.90
18876;DHT22;9570;50.854;13.778;2023-04-01T12:50:37;13.40;99.90
18876;DHT22;9570;50.854;13.778;2023-04-01T12:55:39;13.50;99.90
18876;DHT22;9570;50.854;13.778;2023-04-01T13:01:18;13.90;99.90
18876;DHT22;9570;50.854;13.778;2023-04-01T13:09:40;14.10;99.90
18876;DHT22;9570;50.854;13.778;2023-04-01T13:12:35;13.80;99.90
18876;DHT22;9570;50.854;13.778;2023-04-01T13:18:13;13.50;99.90
18876;DHT22;9570;50.854;13.778;2023-04-01T13:21:11;13.60;99.90
18876;DHT22;9570;50.854;13.778;2023-04-01T13:24:04;13.50;99.90
18876;DHT22;9570;50.854;13.778;2023-04-01T13:29:18;13.70;99.90
18876;DHT22;9570;50.854;13.778;2023-04-01T13:34:48;13.80;99.90
18876;DHT22;9570;50.854;13.778;2023-04-01T13:37:37;14.00;99.90
18876;DHT22;9570;50.854;13.778;2023-04-01T13:40:33;14.10;99.90
18876;DHT22;9570;50.854;13.778;2023-04-01T13:54:20;13.30;99.90
18876;DHT22;9570;50.854;13.778;2023-04-01T13:57:07;13.40;99.90
18876;DHT22;9570;50.854;13.778;2023-04-01T14:03:04;13.50;99.90
18876;DHT22;9570;50.854;13.778;2023-04-01T14:06:09;13.50;99.90
18876;DHT22;9570;50.854;13.778;2023-04-01T14:09:10;13.50;99.90
18876;DHT22;9570;50.854;13.778;2023-04-01T14:20:41;13.70;99.90
18876;DHT22;9570;50.854;13.778;2023-04-01T14:23:45;13.60;99.90
18876;DHT22;9570;50.854;13.778;2023-04-01T14:32:06;13.30;99.90
18876;DHT22;9570;50.854;13.778;2023-04-01T14:37:28;13.30;99.90
18876;DHT22;9570;50.854;13.778;2023-04-01T14:46:06;13.30;99.90
18876;DHT22;9570;50.854;13.778;2023-04-01T14:48:37;13.30;99.90
18876;DHT22;9570;50.854;13.778;2023-04-01T14:51:20;13.30;99.90
18876;DHT22;9570;50.854;13.778;2023-04-01T14:54:04;13.30;99.90
18876;DHT22;9570;50.854;13.778;2023-04-01T14:56:47;13.30;99.90
18876;DHT22;9570;50.854;13.778;2023-04-01T15:02:01;13.30;99.90
18876;DHT22;9570;50.854;13.778;2023-04-01T15:04:58;13.10;99.90
18876;DHT22;9570;50.854;13.778;2023-04-01T15:13:12;12.30;99.90
18876;DHT22;9570;50.854;13.778;2023-04-01T15:16:06;12.00;99.90
18876;DHT22;9570;50.854;13.778;2023-04-01T15:18:44;11.80;99.90
18876;DHT22;9570;50.854;13.778;2023-04-01T15:21:19;11.80;99.90
18876;DHT22;9570;50.854;13.778;2023-04-01T15:24:06;11.90;99.90
18876;DHT22;9570;50.854;13.778;2023-04-01T15:26:54;11.90;99.90
18876;DHT22;9570;50.854;13.778;2023-04-01T15:31:54;11.60;99.90
18876;DHT22;9570;50.854;13.778;2023-04-01T15:34:33;11.70;99.90
18876;DHT22;9570;50.854;13.778;2023-04-01T15:46:09;11.90;99.90
18876;DHT22;9570;50.854;13.778;2023-04-01T15:48:50;12.10;99.90
18876;DHT22;9570;50.854;13.778;2023-04-01T15:51:28;12.30;99.90
18876;DHT22;9570;50.854;13.778;2023-04-01T15:54:22;12.50;99.90
18876;DHT22;9570;50.854;13.778;2023-04-01T16:02:29;12.80;99.90
18876;DHT22;9570;50.854;13.778;2023-04-01T16:08:24;12.70;99.90
18876;DHT22;9570;50.854;13.778;2023-04-01T16:11:17;12.20;99.90
18876;DHT22;9570;50.854;13.778;2023-04-01T16:14:01;12.10;99.90
18876;DHT22;9570;50.854;13.778;2023-04-01T16:16:53;12.20;99.90
18876;DHT22;9570;50.854;13.778;2023-04-01T16:19:33;12.30;99.90
18876;DHT22;9570;50.854;13.778;2023-04-01T16:22:11;12.20;99.90
18876;DHT22;9570;50.854;13.778;2023-04-01T16:24:51;12.00;99.90
18876;DHT22;9570;50.854;13.778;2023-04-01T16:29:52;12.30;99.90
18876;DHT22;9570;50.854;13.778;2023-04-01T16:32:40;12.40;99.90
18876;DHT22;9570;50.854;13.778;2023-04-01T16:37:59;12.60;99.90
18876;DHT22;9570;50.854;13.778;2023-04-01T16:40:57;12.70;99.90
18876;DHT22;9570;50.854;13.778;2023-04-01T16:43:46;12.80;99.90
18876;DHT22;9570;50.854;13.778;2023-04-01T16:48:59;12.90;99.90
18876;DHT22;9570;50.854;13.778;2023-04-01T16:51:34;12.90;99.90
18876;DHT22;9570;50.854;13.778;2023-04-01T16:54:06;12.70;99.90
18876;DHT22;9570;50.854;13.778;2023-04-01T16:56:43;12.30;99.90
18876;DHT22;9570;50.854;13.778;2023-04-01T17:01:52;12.10;99.90
18876;DHT22;9570;50.854;13.778;2023-04-01T17:04:41;11.90;99.90
18876;DHT22;9570;50.854;13.778;2023-04-01T17:07:46;11.80;99.90
18876;DHT22;9570;50.854;13.778;2023-04-01T17:10:29;11.80;99.90
18876;DHT22;9570;50.854;13.778;2023-04-01T17:13:10;11.80;99.90
18876;DHT22;9570;50.854;13.778;2023-04-01T17:15:51;11.90;99.90
18876;DHT22;9570;50.854;13.778;2023-04-01T17:18:37;12.00;99.90
18876;DHT22;9570;50.854;13.778;2023-04-01T17:21:10;12.20;99.90
18876;DHT22;9570;50.854;13.778;2023-04-01T17:23:53;12.30;99.90
18876;DHT22;9570;50.854;13.778;2023-04-01T17:26:40;12.40;99.90
18876;DHT22;9570;50.854;13.778;2023-04-01T17:29:35;12.50;99.90
18876;DHT22;9570;50.854;13.778;2023-04-01T17:35:13;12.50;99.90
18876;DHT22;9570;50.854;13.778;2023-04-01T17:37:53;12.50;99.90
18876;DHT22;9570;50.854;13.778;2023-04-01T17:43:04;12.50;99.90
18876;DHT22;9570;50.854;13.778;2023-04-01T17:45:53;12.40;99.90
18876;DHT22;9570;50.854;13.778;2023-04-01T17:51:23;12.30;99.90
18876;DHT22;9570;50.854;13.778;2023-04-01T17:56:49;12.40;99.90
18876;DHT22;9570;50.854;13.778;2023-04-01T17:59:28;12.30;99.90
18876;DHT22;9570;50.854;13.778;2023-04-01T18:02:07;12.30;99.90
18876;DHT22;9570;50.854;13.778;2023-04-01T18:10:58;12.20;99.90
18876;DHT22;9570;50.854;13.778;2023-04-01T18:13:59;12.20;99.90
18876;DHT22;9570;50.854;13.778;2023-04-01T18:16:38;12.20;99.90
18876;DHT22;9570;50.854;13.778;2023-04-01T18:25:36;12.10;99.90
18876;DHT22;9570;50.854;13.778;2023-04-01T18:28:42;12.10;99.90
18876;DHT22;9570;50.854;13.778;2023-04-01T18:31:16;12.10;99.90
18876;DHT22;9570;50.854;13.778;2023-04-01T18:36:43;12.00;99.90
18876;DHT22;9570;50.854;13.778;2023-04-01T18:39:22;12.00;99.90
18876;DHT22;9570;50.854;13.778;2023-04-01T18:42:16;11.90;99.90
18876;DHT22;9570;50.854;13.778;2023-04-01T18:44:51;11.90;99.90
18876;DHT22;9570;50.854;13.778;2023-04-01T18:47:38;11.80;99.90
18876;DHT22;9570;50.854;13.778;2023-04-01T18:52:53;11.80;99.90
18876;DHT22;9570;50.854;13.778;2023-04-01T18:55:29;11.60;99.90
18876;DHT22;9570;50.854;13.778;2023-04-01T18:58:18;11.60;99.90
18876;DHT22;9570;50.854;13.778;2023-04-01T19:01:04;11.60;99.90
18876;DHT22;9570;50.854;13.778;2023-04-01T19:06:33;11.60;99.90
18876;DHT22;9570;50.854;13.778;2023-04-01T19:09:18;11.60;99.90
18876;DHT22;9570;50.854;13.778;2023-04-01T19:14:52;11.60;99.90
18876;DHT22;9570;50.854;13.778;2023-04-01T19:17:26;11.60;99.90
18876;DHT22;9570;50.854;13.778;2023-04-01T19:20:20;11.60;99.90
18876;DHT22;9570;50.854;13.778;2023-04-01T19:23:02;11.60;99.90
18876;DHT22;9570;50.854;13.778;2023-04-01T19:31:16;11.50;99.90
18876;DHT22;9570;50.854;13.778;2023-04-01T19:36:29;11.50;99.90
18876;DHT22;9570;50.854;13.778;2023-04-01T19:41:39;11.40;99.90
18876;DHT22;9570;50.854;13.778;2023-04-01T19:50:01;11.40;99.90
18876;DHT22;9570;50.854;13.778;2023-04-01T19:52:33;11.40;99.90
18876;DHT22;9570;50.854;13.778;2023-04-01T19:57:44;11.30;99.90
18876;DHT22;9570;50.854;13.778;2023-04-01T20:00:34;11.10;99.90
18876;DHT22;9570;50.854;13.778;2023-04-01T20:08:39;11.20;99.90
18876;DHT22;9570;50.854;13.778;2023-04-01T20:14:08;11.20;99.90
18876;DHT22;9570;50.854;13.778;2023-04-01T20:16:59;11.20;99.90
18876;DHT22;9570;50.854;13.778;2023-04-01T20:22:03;11.00;99.90
18876;DHT22;9570;50.854;13.778;2023-04-01T20:24:34;11.00;99.90
18876;DHT22;9570;50.854;13.778;2023-04-01T20:32:24;11.10;99.90
18876;DHT22;9570;50.854;13.778;2023-04-01T20:38:25;11.00;99.90
18876;DHT22;9570;50.854;13.778;2023-04-01T20:41:07;11.00;99.90
18876;DHT22;9570;50.854;13.778;2023-04-01T20:44:03;10.90;99.90
18876;DHT22;9570;50.854;13.778;2023-04-01T20:46:56;10.90;99.90
18876;DHT22;9570;50.854;13.778;2023-04-01T20:54:48;10.90;99.90
18876;DHT22;9570;50.854;13.778;2023-04-01T20:57:44;10.90;99.90
18876;DHT22;9570;50.854;13.778;2023-04-01T21:00:56;10.90;99.90
18876;DHT22;9570;50.854;13.778;2023-04-01T21:03:41;10.80;99.90
18876;DHT22;9570;50.854;13.778;2023-04-01T21:06:36;10.80;99.90
18876;DHT22;9570;50.854;13.778;2023-04-01T21:12:17;10.80;99.90
18876;DHT22;9570;50.854;13.778;2023-04-01T21:15:37;10.80;99.90
18876;DHT22;9570;50.854;13.778;2023-04-01T21:18:13;10.80;99.90
18876;DHT22;9570;50.854;13.778;2023-04-01T21:29:39;10.70;99.90
18876;DHT22;9570;50.854;13.778;2023-04-01T21:32:24;10.70;99.90
18876;DHT22;9570;50.854;13.778;2023-04-01T21:35:23;10.70;99.90
18876;DHT22;9570;50.854;13.778;2023-04-01T21:38:06;10.70;99.90
18876;DHT22;9570;50.854;13.778;2023-04-01T21:40:52;10.70;99.90
18876;DHT22;9570;50.854;13.778;2023-04-01T21:49:38;10.70;99.90
18876;DHT22;9570;50.854;13.778;2023-04-01T21:57:50;10.70;99.90
18876;DHT22;9570;50.854;13.778;2023-04-01T22:00:33;10.70;99.90
18876;DHT22;9570;50.854;13.778;2023-04-01T22:14:05;10.60;99.90
18876;DHT22;9570;50.854;13.778;2023-04-01T22:16:42;10.60;99.90
18876;DHT22;9570;50.854;13.778;2023-04-01T22:22:13;10.60;99.90
18876;DHT22;9570;50.854;13.778;2023-04-01T22:25:08;10.60;99.90
18876;DHT22;9570;50.854;13.778;2023-04-01T22:27:46;10.60;99.90
18876;DHT22;9570;50.854;13.778;2023-04-01T22:30:26;10.60;99.90
18876;DHT22;9570;50.854;13.778;2023-04-01T22:33:07;10.60;99.90
18876;DHT22;9570;50.854;13.778;2023-04-01T22:41:19;10.40;99.90
18876;DHT22;9570;50.854;13.778;2023-04-01T22:43:47;10.40;99.90
18876;DHT22;9570;50.854;13.778;2023-04-01T22:46:36;10.50;99.90
18876;DHT22;9570;50.854;13.778;2023-04-01T22:54:37;10.50;99.90
18876;DHT22;9570;50.854;13.778;2023-04-01T22:57:07;10.50;99.90
18876;DHT22;9570;50.854;13.778;2023-04-01T23:02:09;10.60;99.90
18876;DHT22;9570;50.854;13.778;2023-04-01T23:04:39;10.60;99.90
18876;DHT22;9570;50.854;13.778;2023-04-01T23:10:32;10.50;99.90
18876;DHT22;9570;50.854;13.778;2023-04-01T23:13:03;10.60;99.90
18876;DHT22;9570;50.854;13.778;2023-04-01T23:15:29;10.50;99.90
18876;DHT22;9570;50.854;13.778;2023-04-01T23:18:01;10.50;99.90
18876;DHT22;9570;50.854;13.778;2023-04-01T23:28:46;10.50;99.90
18876;DHT22;9570;50.854;13.778;2023-04-01T23:31:25;10.40;99.90
18876;DHT22;9570;50.854;13.778;2023-04-01T23:33:56;10.40;99.90
18876;DHT22;9570;50.854;13.778;2023-04-01T23:36:22;10.40;99.90
18876;DHT22;9570;50.854;13.778;2023-04-01T23:38:48;10.40;99.90
18876;DHT22;9570;50.854;13.778;2023-04-01T23:41:25;10.50;99.90